sensor_id;sensor_type;location;lat;lon;timestamp;pressure;altitude;pressure_sealevel;temperature;humidity
60646;BME280;46462;32.608;-117.032;2023-09-19T00:02:02;99327.03;;;27.17;45.39
60646;BME280;46462;32.608;-117.032;2023-09-19T00:04:33;99328.84;;;27.19;45.45
60646;BME280;46462;32.608;-117.032;2023-09-19T00:07:04;99327.17;;;27.25;45.32
60646;BME280;46462;32.608;-117.032;2023-09-19T00:09:34;99330.36;;;27.25;45.52
60646;BME280;46462;32.608;-117.032;2023-09-19T00:12:06;99328.14;;;27.27;45.54
60646;BME280;46462;32.608;-117.032;2023-09-19T00:14:35;99325.52;;;27.29;45.64
60646;BME280;46462;32.608;-117.032;2023-09-19T00:17:06;99329.52;;;27.29;45.69
60646;BME280;46462;32.608;-117.032;2023-09-19T00:19:36;99329.37;;;27.34;45.71
60646;BME280;46462;32.608;-117.032;2023-09-19T00:22:06;99327.14;;;27.42;45.70
60646;BME280;46462;32.608;-117.032;2023-09-19T00:24:37;99328.00;;;27.40;45.92
60646;BME280;46462;32.608;-117.032;2023-09-19T00:27:08;99324.66;;;27.42;45.75
60646;BME280;46462;32.608;-117.032;2023-09-19T00:29:38;99327.29;;;27.40;45.94
60646;BME280;46462;32.608;-117.032;2023-09-19T00:32:09;99327.78;;;27.40;45.98
60646;BME280;46462;32.608;-117.032;2023-09-19T00:34:39;99327.19;;;27.47;45.89
60646;BME280;46462;32.608;-117.032;2023-09-19T00:37:10;99328.61;;;27.51;45.75
60646;BME280;46462;32.608;-117.032;2023-09-19T00:39:41;99332.90;;;27.50;45.86
60646;BME280;46462;32.608;-117.032;2023-09-19T00:42:18;99335.49;;;27.49;46.03
60646;BME280;46462;32.608;-117.032;2023-09-19T00:44:42;99332.73;;;27.53;46.11
60646;BME280;46462;32.608;-117.032;2023-09-19T00:47:13;99331.00;;;27.55;45.94
60646;BME280;46462;32.608;-117.032;2023-09-19T00:49:43;99329.54;;;27.56;46.07
60646;BME280;46462;32.608;-117.032;2023-09-19T00:52:14;99333.72;;;27.60;46.12
60646;BME280;46462;32.608;-117.032;2023-09-19T00:54:45;99333.05;;;27.58;46.30
60646;BME280;46462;32.608;-117.032;2023-09-19T00:57:15;99331.42;;;27.61;46.21
60646;BME280;46462;32.608;-117.032;2023-09-19T00:59:48;99329.17;;;27.63;46.21
60646;BME280;46462;32.608;-117.032;2023-09-19T01:02:16;99328.55;;;27.65;46.25
60646;BME280;46462;32.608;-117.032;2023-09-19T01:04:47;99329.85;;;27.67;46.35
60646;BME280;46462;32.608;-117.032;2023-09-19T01:07:18;99326.02;;;27.70;46.49
60646;BME280;46462;32.608;-117.032;2023-09-19T01:09:48;99325.48;;;27.70;46.41
60646;BME280;46462;32.608;-117.032;2023-09-19T01:12:24;99328.12;;;27.69;46.46
60646;BME280;46462;32.608;-117.032;2023-09-19T01:14:55;99330.77;;;27.69;46.51
60646;BME280;46462;32.608;-117.032;2023-09-19T01:17:25;99331.95;;;27.72;46.66
60646;BME280;46462;32.608;-117.032;2023-09-19T01:22:25;99326.35;;;27.74;46.54
60646;BME280;46462;32.608;-117.032;2023-09-19T01:25:12;99320.93;;;27.75;46.64
60646;BME280;46462;32.608;-117.032;2023-09-19T01:27:39;99325.87;;;27.74;46.60
60646;BME280;46462;32.608;-117.032;2023-09-19T01:32:24;99323.65;;;27.75;46.69
60646;BME280;46462;32.608;-117.032;2023-09-19T01:34:57;99325.30;;;27.74;46.80
60646;BME280;46462;32.608;-117.032;2023-09-19T01:37:25;99320.75;;;27.75;46.76
60646;BME280;46462;32.608;-117.032;2023-09-19T01:39:59;99324.38;;;27.74;46.87
60646;BME280;46462;32.608;-117.032;2023-09-19T01:42:35;99321.55;;;27.75;47.05
60646;BME280;46462;32.608;-117.032;2023-09-19T01:45:05;99321.27;;;27.74;47.19
60646;BME280;46462;32.608;-117.032;2023-09-19T01:47:33;99319.41;;;27.73;47.35
60646;BME280;46462;32.608;-117.032;2023-09-19T01:50:05;99315.55;;;27.72;47.46
60646;BME280;46462;32.608;-117.032;2023-09-19T01:52:34;99321.15;;;27.71;47.52
60646;BME280;46462;32.608;-117.032;2023-09-19T01:55:05;99322.27;;;27.71;47.59
60646;BME280;46462;32.608;-117.032;2023-09-19T01:57:34;99325.74;;;27.71;47.58
60646;BME280;46462;32.608;-117.032;2023-09-19T02:00:03;99328.92;;;27.78;47.53
60646;BME280;46462;32.608;-117.032;2023-09-19T02:02:32;99333.72;;;27.75;47.47
60646;BME280;46462;32.608;-117.032;2023-09-19T02:05:02;99334.07;;;27.73;47.41
60646;BME280;46462;32.608;-117.032;2023-09-19T02:07:33;99336.09;;;27.72;47.49
60646;BME280;46462;32.608;-117.032;2023-09-19T02:10:08;99340.32;;;27.70;47.70
60646;BME280;46462;32.608;-117.032;2023-09-19T02:12:37;99344.81;;;27.70;47.96
60646;BME280;46462;32.608;-117.032;2023-09-19T02:15:08;99347.52;;;27.69;47.86
60646;BME280;46462;32.608;-117.032;2023-09-19T02:17:37;99349.79;;;27.70;47.75
60646;BME280;46462;32.608;-117.032;2023-09-19T02:20:08;99355.83;;;27.71;47.79
60646;BME280;46462;32.608;-117.032;2023-09-19T02:22:38;99353.80;;;27.74;47.58
60646;BME280;46462;32.608;-117.032;2023-09-19T02:25:09;99350.43;;;27.72;47.50
60646;BME280;46462;32.608;-117.032;2023-09-19T02:27:39;99357.79;;;27.73;47.79
60646;BME280;46462;32.608;-117.032;2023-09-19T02:30:11;99360.02;;;27.73;47.97
60646;BME280;46462;32.608;-117.032;2023-09-19T02:32:40;99358.57;;;27.74;47.69
60646;BME280;46462;32.608;-117.032;2023-09-19T02:35:11;99355.15;;;27.73;47.84
60646;BME280;46462;32.608;-117.032;2023-09-19T02:37:42;99357.85;;;27.72;47.72
60646;BME280;46462;32.608;-117.032;2023-09-19T02:40:12;99357.34;;;27.70;47.72
60646;BME280;46462;32.608;-117.032;2023-09-19T02:42:43;99357.32;;;27.70;47.59
60646;BME280;46462;32.608;-117.032;2023-09-19T02:45:14;99357.83;;;27.72;47.63
60646;BME280;46462;32.608;-117.032;2023-09-19T02:47:44;99358.67;;;27.73;47.69
60646;BME280;46462;32.608;-117.032;2023-09-19T02:50:15;99359.78;;;27.70;47.71
60646;BME280;46462;32.608;-117.032;2023-09-19T02:52:46;99357.85;;;27.71;47.69
60646;BME280;46462;32.608;-117.032;2023-09-19T02:55:17;99361.01;;;27.68;47.53
60646;BME280;46462;32.608;-117.032;2023-09-19T02:57:47;99363.29;;;27.69;47.45
60646;BME280;46462;32.608;-117.032;2023-09-19T03:00:19;99363.56;;;27.68;47.46
60646;BME280;46462;32.608;-117.032;2023-09-19T03:02:48;99362.48;;;27.68;47.01
60646;BME280;46462;32.608;-117.032;2023-09-19T03:05:18;99368.72;;;27.67;47.26
60646;BME280;46462;32.608;-117.032;2023-09-19T03:07:50;99371.38;;;27.65;47.36
60646;BME280;46462;32.608;-117.032;2023-09-19T03:10:20;99373.23;;;27.62;47.01
60646;BME280;46462;32.608;-117.032;2023-09-19T03:12:51;99374.56;;;27.60;46.99
60646;BME280;46462;32.608;-117.032;2023-09-19T03:15:21;99370.13;;;27.56;47.13
60646;BME280;46462;32.608;-117.032;2023-09-19T03:17:51;99371.25;;;27.58;47.05
60646;BME280;46462;32.608;-117.032;2023-09-19T03:20:22;99374.56;;;27.57;47.36
60646;BME280;46462;32.608;-117.032;2023-09-19T03:22:53;99373.32;;;27.56;46.96
60646;BME280;46462;32.608;-117.032;2023-09-19T03:25:23;99372.57;;;27.54;47.12
60646;BME280;46462;32.608;-117.032;2023-09-19T03:27:56;99374.03;;;27.54;47.12
60646;BME280;46462;32.608;-117.032;2023-09-19T03:30:25;99377.88;;;27.53;46.89
60646;BME280;46462;32.608;-117.032;2023-09-19T03:32:55;99377.02;;;27.54;46.88
60646;BME280;46462;32.608;-117.032;2023-09-19T03:35:26;99377.07;;;27.52;46.85
60646;BME280;46462;32.608;-117.032;2023-09-19T03:37:57;99378.67;;;27.52;46.93
60646;BME280;46462;32.608;-117.032;2023-09-19T03:40:27;99377.73;;;27.49;47.09
60646;BME280;46462;32.608;-117.032;2023-09-19T03:43:01;99381.84;;;27.48;47.06
60646;BME280;46462;32.608;-117.032;2023-09-19T03:45:28;99382.61;;;27.47;47.08
60646;BME280;46462;32.608;-117.032;2023-09-19T03:47:59;99381.43;;;27.54;46.85
60646;BME280;46462;32.608;-117.032;2023-09-19T03:50:29;99384.61;;;27.50;46.94
60646;BME280;46462;32.608;-117.032;2023-09-19T03:53:00;99386.69;;;27.49;47.11
60646;BME280;46462;32.608;-117.032;2023-09-19T03:55:31;99386.07;;;27.43;47.17
60646;BME280;46462;32.608;-117.032;2023-09-19T03:58:02;99384.75;;;27.42;47.13
60646;BME280;46462;32.608;-117.032;2023-09-19T04:00:32;99385.38;;;27.38;47.21
60646;BME280;46462;32.608;-117.032;2023-09-19T04:03:03;99386.28;;;27.42;47.07
60646;BME280;46462;32.608;-117.032;2023-09-19T04:05:33;99388.34;;;27.38;47.19
60646;BME280;46462;32.608;-117.032;2023-09-19T04:08:04;99384.74;;;27.36;47.28
60646;BME280;46462;32.608;-117.032;2023-09-19T04:10:35;99383.77;;;27.31;47.37
60646;BME280;46462;32.608;-117.032;2023-09-19T04:13:05;99388.40;;;27.30;47.22
60646;BME280;46462;32.608;-117.032;2023-09-19T04:15:36;99390.97;;;27.30;47.20
60646;BME280;46462;32.608;-117.032;2023-09-19T04:18:06;99391.31;;;27.30;47.19
60646;BME280;46462;32.608;-117.032;2023-09-19T04:20:37;99394.50;;;27.28;47.29
60646;BME280;46462;32.608;-117.032;2023-09-19T04:23:08;99393.06;;;27.26;47.36
60646;BME280;46462;32.608;-117.032;2023-09-19T04:25:46;99393.20;;;27.28;47.27
60646;BME280;46462;32.608;-117.032;2023-09-19T04:28:09;99394.37;;;27.29;47.18
60646;BME280;46462;32.608;-117.032;2023-09-19T04:30:40;99397.18;;;27.28;47.17
60646;BME280;46462;32.608;-117.032;2023-09-19T04:33:10;99397.78;;;27.28;47.18
60646;BME280;46462;32.608;-117.032;2023-09-19T04:35:41;99399.33;;;27.27;47.31
60646;BME280;46462;32.608;-117.032;2023-09-19T04:38:11;99394.47;;;27.26;47.21
60646;BME280;46462;32.608;-117.032;2023-09-19T04:40:42;99394.58;;;27.25;47.30
60646;BME280;46462;32.608;-117.032;2023-09-19T04:43:13;99397.65;;;27.25;47.22
60646;BME280;46462;32.608;-117.032;2023-09-19T04:45:43;99398.24;;;27.23;47.25
60646;BME280;46462;32.608;-117.032;2023-09-19T04:48:14;99394.26;;;27.25;47.16
60646;BME280;46462;32.608;-117.032;2023-09-19T04:50:45;99396.67;;;27.22;47.21
60646;BME280;46462;32.608;-117.032;2023-09-19T04:53:15;99396.38;;;27.21;47.17
60646;BME280;46462;32.608;-117.032;2023-09-19T04:55:49;99397.23;;;27.20;47.22
60646;BME280;46462;32.608;-117.032;2023-09-19T04:58:16;99394.56;;;27.21;47.15
60646;BME280;46462;32.608;-117.032;2023-09-19T05:00:47;99394.19;;;27.18;47.22
60646;BME280;46462;32.608;-117.032;2023-09-19T05:03:18;99396.84;;;27.17;47.21
60646;BME280;46462;32.608;-117.032;2023-09-19T05:05:48;99400.58;;;27.17;47.11
60646;BME280;46462;32.608;-117.032;2023-09-19T05:08:19;99398.35;;;27.14;47.18
60646;BME280;46462;32.608;-117.032;2023-09-19T05:10:50;99399.05;;;27.11;47.29
60646;BME280;46462;32.608;-117.032;2023-09-19T05:13:20;99396.32;;;27.08;47.30
60646;BME280;46462;32.608;-117.032;2023-09-19T05:15:51;99395.02;;;27.06;47.38
60646;BME280;46462;32.608;-117.032;2023-09-19T05:18:21;99392.60;;;27.04;47.42
60646;BME280;46462;32.608;-117.032;2023-09-19T05:20:52;99390.90;;;27.02;47.44
60646;BME280;46462;32.608;-117.032;2023-09-19T05:23:23;99391.69;;;27.01;47.55
60646;BME280;46462;32.608;-117.032;2023-09-19T05:25:53;99392.64;;;27.02;47.48
60646;BME280;46462;32.608;-117.032;2023-09-19T05:28:24;99394.40;;;27.01;47.43
60646;BME280;46462;32.608;-117.032;2023-09-19T05:30:55;99394.37;;;26.99;47.42
60646;BME280;46462;32.608;-117.032;2023-09-19T05:33:25;99394.44;;;27.04;47.36
60646;BME280;46462;32.608;-117.032;2023-09-19T05:35:56;99394.75;;;27.03;47.33
60646;BME280;46462;32.608;-117.032;2023-09-19T05:38:26;99392.97;;;26.97;47.47
60646;BME280;46462;32.608;-117.032;2023-09-19T05:40:57;99394.43;;;26.93;47.52
60646;BME280;46462;32.608;-117.032;2023-09-19T05:43:28;99394.60;;;26.92;47.51
60646;BME280;46462;32.608;-117.032;2023-09-19T05:46:00;99391.31;;;26.87;47.55
60646;BME280;46462;32.608;-117.032;2023-09-19T05:48:29;99389.87;;;26.86;47.62
60646;BME280;46462;32.608;-117.032;2023-09-19T05:51:00;99393.04;;;26.85;47.56
60646;BME280;46462;32.608;-117.032;2023-09-19T05:53:30;99395.08;;;26.81;47.77
60646;BME280;46462;32.608;-117.032;2023-09-19T05:56:01;99395.24;;;26.81;47.61
60646;BME280;46462;32.608;-117.032;2023-09-19T05:58:31;99393.63;;;26.77;47.76
60646;BME280;46462;32.608;-117.032;2023-09-19T06:01:02;99390.82;;;26.76;47.72
60646;BME280;46462;32.608;-117.032;2023-09-19T06:03:32;99394.52;;;26.77;47.78
60646;BME280;46462;32.608;-117.032;2023-09-19T06:06:03;99397.38;;;26.74;47.72
60646;BME280;46462;32.608;-117.032;2023-09-19T06:08:34;99398.12;;;26.71;47.75
60646;BME280;46462;32.608;-117.032;2023-09-19T06:11:04;99400.27;;;26.70;47.78
60646;BME280;46462;32.608;-117.032;2023-09-19T06:13:35;99401.68;;;26.68;47.88
60646;BME280;46462;32.608;-117.032;2023-09-19T06:16:06;99401.91;;;26.69;47.67
60646;BME280;46462;32.608;-117.032;2023-09-19T06:18:36;99398.91;;;26.70;47.82
60646;BME280;46462;32.608;-117.032;2023-09-19T06:21:07;99395.95;;;26.71;47.74
60646;BME280;46462;32.608;-117.032;2023-09-19T06:23:37;99392.87;;;26.71;47.60
60646;BME280;46462;32.608;-117.032;2023-09-19T06:26:08;99392.67;;;26.74;47.52
60646;BME280;46462;32.608;-117.032;2023-09-19T06:28:39;99396.96;;;26.74;47.51
60646;BME280;46462;32.608;-117.032;2023-09-19T06:31:09;99401.62;;;26.67;47.64
60646;BME280;46462;32.608;-117.032;2023-09-19T06:33:40;99399.84;;;26.63;47.64
60646;BME280;46462;32.608;-117.032;2023-09-19T06:36:11;99398.20;;;26.60;47.70
60646;BME280;46462;32.608;-117.032;2023-09-19T06:38:41;99402.11;;;26.58;47.77
60646;BME280;46462;32.608;-117.032;2023-09-19T06:41:12;99403.91;;;26.56;47.74
60646;BME280;46462;32.608;-117.032;2023-09-19T06:43:43;99405.90;;;26.58;47.52
60646;BME280;46462;32.608;-117.032;2023-09-19T06:46:13;99407.85;;;26.53;47.79
60646;BME280;46462;32.608;-117.032;2023-09-19T06:48:44;99411.03;;;26.57;47.58
60646;BME280;46462;32.608;-117.032;2023-09-19T06:51:15;99410.56;;;26.54;47.61
60646;BME280;46462;32.608;-117.032;2023-09-19T06:53:45;99408.89;;;26.54;47.54
60646;BME280;46462;32.608;-117.032;2023-09-19T06:56:16;99408.62;;;26.53;47.60
60646;BME280;46462;32.608;-117.032;2023-09-19T06:58:46;99410.43;;;26.49;47.71
60646;BME280;46462;32.608;-117.032;2023-09-19T07:01:17;99413.56;;;26.46;47.75
60646;BME280;46462;32.608;-117.032;2023-09-19T07:03:48;99415.00;;;26.49;47.70
60646;BME280;46462;32.608;-117.032;2023-09-19T07:06:18;99414.59;;;26.47;47.81
60646;BME280;46462;32.608;-117.032;2023-09-19T07:08:49;99418.12;;;26.47;47.58
60646;BME280;46462;32.608;-117.032;2023-09-19T07:11:20;99418.10;;;26.40;47.86
60646;BME280;46462;32.608;-117.032;2023-09-19T07:13:50;99416.32;;;26.36;47.86
60646;BME280;46462;32.608;-117.032;2023-09-19T07:16:21;99413.95;;;26.36;47.72
60646;BME280;46462;32.608;-117.032;2023-09-19T07:18:52;99416.88;;;26.33;47.94
60646;BME280;46462;32.608;-117.032;2023-09-19T07:21:22;99419.63;;;26.31;47.82
60646;BME280;46462;32.608;-117.032;2023-09-19T07:23:53;99421.39;;;26.31;47.75
60646;BME280;46462;32.608;-117.032;2023-09-19T07:26:23;99421.03;;;26.28;47.91
60646;BME280;46462;32.608;-117.032;2023-09-19T07:28:54;99418.62;;;26.25;47.88
60646;BME280;46462;32.608;-117.032;2023-09-19T07:31:25;99419.13;;;26.30;47.68
60646;BME280;46462;32.608;-117.032;2023-09-19T07:33:55;99415.10;;;26.26;47.73
60646;BME280;46462;32.608;-117.032;2023-09-19T07:36:26;99417.92;;;26.27;47.68
60646;BME280;46462;32.608;-117.032;2023-09-19T07:38:57;99417.29;;;26.24;47.78
60646;BME280;46462;32.608;-117.032;2023-09-19T07:41:27;99417.26;;;26.23;47.75
60646;BME280;46462;32.608;-117.032;2023-09-19T07:43:58;99418.31;;;26.23;47.72
60646;BME280;46462;32.608;-117.032;2023-09-19T07:46:28;99417.42;;;26.17;47.81
60646;BME280;46462;32.608;-117.032;2023-09-19T07:48:59;99415.05;;;26.18;47.81
60646;BME280;46462;32.608;-117.032;2023-09-19T07:51:30;99411.95;;;26.17;47.79
60646;BME280;46462;32.608;-117.032;2023-09-19T07:54:00;99411.26;;;26.13;47.82
60646;BME280;46462;32.608;-117.032;2023-09-19T07:56:31;99404.46;;;26.21;47.61
60646;BME280;46462;32.608;-117.032;2023-09-19T07:59:03;99403.58;;;26.18;47.68
60646;BME280;46462;32.608;-117.032;2023-09-19T08:01:32;99401.68;;;26.15;47.78
60646;BME280;46462;32.608;-117.032;2023-09-19T08:04:03;99398.65;;;26.14;47.71
60646;BME280;46462;32.608;-117.032;2023-09-19T08:06:34;99400.99;;;26.15;47.66
60646;BME280;46462;32.608;-117.032;2023-09-19T08:09:04;99399.44;;;26.12;47.76
60646;BME280;46462;32.608;-117.032;2023-09-19T08:11:35;99399.38;;;26.09;47.83
60646;BME280;46462;32.608;-117.032;2023-09-19T08:14:06;99397.17;;;26.04;47.92
60646;BME280;46462;32.608;-117.032;2023-09-19T08:16:36;99393.50;;;26.03;47.77
60646;BME280;46462;32.608;-117.032;2023-09-19T08:19:07;99393.25;;;26.03;47.88
60646;BME280;46462;32.608;-117.032;2023-09-19T08:21:37;99392.93;;;26.07;47.59
60646;BME280;46462;32.608;-117.032;2023-09-19T08:24:08;99389.16;;;26.11;47.61
60646;BME280;46462;32.608;-117.032;2023-09-19T08:26:39;99380.79;;;26.15;47.39
60646;BME280;46462;32.608;-117.032;2023-09-19T08:29:09;99376.82;;;26.13;47.51
60646;BME280;46462;32.608;-117.032;2023-09-19T08:31:40;99372.19;;;26.07;47.53
60646;BME280;46462;32.608;-117.032;2023-09-19T08:34:11;99372.06;;;26.05;47.64
60646;BME280;46462;32.608;-117.032;2023-09-19T08:36:41;99370.24;;;26.03;47.65
60646;BME280;46462;32.608;-117.032;2023-09-19T08:39:12;99370.59;;;26.00;47.67
60646;BME280;46462;32.608;-117.032;2023-09-19T08:41:43;99371.64;;;25.97;47.72
60646;BME280;46462;32.608;-117.032;2023-09-19T08:44:13;99370.64;;;26.01;47.57
60646;BME280;46462;32.608;-117.032;2023-09-19T08:46:44;99369.70;;;26.01;47.57
60646;BME280;46462;32.608;-117.032;2023-09-19T08:49:19;99365.78;;;25.99;47.52
60646;BME280;46462;32.608;-117.032;2023-09-19T08:51:46;99363.73;;;26.00;47.55
60646;BME280;46462;32.608;-117.032;2023-09-19T08:54:23;99362.43;;;25.98;47.47
60646;BME280;46462;32.608;-117.032;2023-09-19T08:56:47;99366.18;;;25.98;47.46
60646;BME280;46462;32.608;-117.032;2023-09-19T08:59:22;99366.11;;;25.96;47.48
60646;BME280;46462;32.608;-117.032;2023-09-19T09:01:48;99363.48;;;25.97;47.44
60646;BME280;46462;32.608;-117.032;2023-09-19T09:04:19;99363.40;;;25.95;47.45
60646;BME280;46462;32.608;-117.032;2023-09-19T09:06:49;99362.01;;;25.96;47.40
60646;BME280;46462;32.608;-117.032;2023-09-19T09:09:20;99361.15;;;25.93;47.46
60646;BME280;46462;32.608;-117.032;2023-09-19T09:11:50;99362.46;;;25.91;47.47
60646;BME280;46462;32.608;-117.032;2023-09-19T09:14:22;99362.21;;;25.84;47.63
60646;BME280;46462;32.608;-117.032;2023-09-19T09:16:52;99363.52;;;25.81;47.69
60646;BME280;46462;32.608;-117.032;2023-09-19T09:19:22;99364.16;;;25.78;47.74
60646;BME280;46462;32.608;-117.032;2023-09-19T09:21:53;99364.39;;;25.79;47.74
60646;BME280;46462;32.608;-117.032;2023-09-19T09:24:28;99361.65;;;25.77;47.73
60646;BME280;46462;32.608;-117.032;2023-09-19T09:26:54;99356.21;;;25.76;47.67
60646;BME280;46462;32.608;-117.032;2023-09-19T09:34:32;99348.20;;;25.76;47.60
60646;BME280;46462;32.608;-117.032;2023-09-19T09:36:57;99345.46;;;25.74;47.63
60646;BME280;46462;32.608;-117.032;2023-09-19T09:39:31;99339.42;;;25.71;47.63
60646;BME280;46462;32.608;-117.032;2023-09-19T09:41:58;99335.91;;;25.70;47.65
60646;BME280;46462;32.608;-117.032;2023-09-19T09:44:29;99331.98;;;25.66;47.64
60646;BME280;46462;32.608;-117.032;2023-09-19T09:47:00;99334.59;;;25.69;47.67
60646;BME280;46462;32.608;-117.032;2023-09-19T09:49:30;99332.16;;;25.69;47.58
60646;BME280;46462;32.608;-117.032;2023-09-19T09:52:02;99331.05;;;25.66;47.61
60646;BME280;46462;32.608;-117.032;2023-09-19T09:54:32;99325.65;;;25.65;47.63
60646;BME280;46462;32.608;-117.032;2023-09-19T09:57:03;99325.34;;;25.63;47.67
60646;BME280;46462;32.608;-117.032;2023-09-19T09:59:44;99326.30;;;25.61;47.63
60646;BME280;46462;32.608;-117.032;2023-09-19T10:02:04;99327.38;;;25.62;47.65
60646;BME280;46462;32.608;-117.032;2023-09-19T10:04:34;99323.41;;;25.61;47.62
60646;BME280;46462;32.608;-117.032;2023-09-19T10:07:05;99320.76;;;25.59;47.73
60646;BME280;46462;32.608;-117.032;2023-09-19T10:09:45;99321.58;;;25.56;47.68
60646;BME280;46462;32.608;-117.032;2023-09-19T10:12:07;99321.29;;;25.55;47.66
60646;BME280;46462;32.608;-117.032;2023-09-19T10:14:38;99319.51;;;25.56;47.58
60646;BME280;46462;32.608;-117.032;2023-09-19T10:17:10;99319.01;;;25.55;47.52
60646;BME280;46462;32.608;-117.032;2023-09-19T10:19:42;99318.81;;;25.53;47.57
60646;BME280;46462;32.608;-117.032;2023-09-19T10:22:09;99316.26;;;25.49;47.75
60646;BME280;46462;32.608;-117.032;2023-09-19T10:24:40;99317.40;;;25.52;47.58
60646;BME280;46462;32.608;-117.032;2023-09-19T10:27:10;99315.68;;;25.52;47.57
60646;BME280;46462;32.608;-117.032;2023-09-19T10:29:42;99312.37;;;25.50;47.56
60646;BME280;46462;32.608;-117.032;2023-09-19T10:32:15;99308.76;;;25.54;47.46
60646;BME280;46462;32.608;-117.032;2023-09-19T10:34:43;99303.82;;;25.50;47.52
60646;BME280;46462;32.608;-117.032;2023-09-19T10:37:13;99300.24;;;25.50;47.49
60646;BME280;46462;32.608;-117.032;2023-09-19T10:39:46;99300.08;;;25.47;47.50
60646;BME280;46462;32.608;-117.032;2023-09-19T10:42:19;99296.59;;;25.50;47.37
60646;BME280;46462;32.608;-117.032;2023-09-19T10:44:46;99296.20;;;25.48;47.31
60646;BME280;46462;32.608;-117.032;2023-09-19T10:47:16;99291.86;;;25.46;47.39
60646;BME280;46462;32.608;-117.032;2023-09-19T10:49:47;99290.24;;;25.42;47.40
60646;BME280;46462;32.608;-117.032;2023-09-19T10:52:20;99286.14;;;25.42;47.43
60646;BME280;46462;32.608;-117.032;2023-09-19T10:54:50;99291.15;;;25.43;47.35
60646;BME280;46462;32.608;-117.032;2023-09-19T10:57:20;99287.91;;;25.46;47.22
60646;BME280;46462;32.608;-117.032;2023-09-19T11:02:20;99283.49;;;25.40;47.23
60646;BME280;46462;32.608;-117.032;2023-09-19T11:04:50;99283.95;;;25.40;47.31
60646;BME280;46462;32.608;-117.032;2023-09-19T11:07:21;99281.56;;;25.36;47.23
60646;BME280;46462;32.608;-117.032;2023-09-19T11:09:53;99282.74;;;25.35;47.18
60646;BME280;46462;32.608;-117.032;2023-09-19T11:14:53;99282.30;;;25.31;47.17
60646;BME280;46462;32.608;-117.032;2023-09-19T11:17:32;99280.54;;;25.31;47.12
60646;BME280;46462;32.608;-117.032;2023-09-19T11:22:25;99282.05;;;25.32;47.02
60646;BME280;46462;32.608;-117.032;2023-09-19T11:24:55;99279.36;;;25.36;46.86
60646;BME280;46462;32.608;-117.032;2023-09-19T11:27:26;99277.94;;;25.41;46.66
60646;BME280;46462;32.608;-117.032;2023-09-19T11:35:06;99279.79;;;25.48;46.42
60646;BME280;46462;32.608;-117.032;2023-09-19T11:40:07;99276.37;;;25.54;46.08
60646;BME280;46462;32.608;-117.032;2023-09-19T11:45:01;99275.73;;;25.47;46.25
60646;BME280;46462;32.608;-117.032;2023-09-19T11:47:32;99274.81;;;25.37;46.44
60646;BME280;46462;32.608;-117.032;2023-09-19T11:50:02;99273.21;;;25.36;46.45
60646;BME280;46462;32.608;-117.032;2023-09-19T11:52:33;99270.05;;;25.41;46.16
60646;BME280;46462;32.608;-117.032;2023-09-19T11:55:07;99269.80;;;25.43;46.20
60646;BME280;46462;32.608;-117.032;2023-09-19T11:57:37;99268.71;;;25.43;46.17
60646;BME280;46462;32.608;-117.032;2023-09-19T12:00:10;99269.99;;;25.41;46.02
60646;BME280;46462;32.608;-117.032;2023-09-19T12:02:39;99266.75;;;25.43;46.08
60646;BME280;46462;32.608;-117.032;2023-09-19T12:05:08;99262.21;;;25.47;45.91
60646;BME280;46462;32.608;-117.032;2023-09-19T12:07:43;99264.22;;;25.41;46.04
60646;BME280;46462;32.608;-117.032;2023-09-19T12:10:10;99260.87;;;25.41;45.95
60646;BME280;46462;32.608;-117.032;2023-09-19T12:12:40;99264.87;;;25.46;45.97
60646;BME280;46462;32.608;-117.032;2023-09-19T12:15:12;99266.50;;;25.44;45.87
60646;BME280;46462;32.608;-117.032;2023-09-19T12:17:42;99265.28;;;25.40;45.80
60646;BME280;46462;32.608;-117.032;2023-09-19T12:20:12;99264.78;;;25.38;45.90
60646;BME280;46462;32.608;-117.032;2023-09-19T12:22:44;99262.00;;;25.31;45.95
60646;BME280;46462;32.608;-117.032;2023-09-19T12:25:14;99261.78;;;25.28;46.13
60646;BME280;46462;32.608;-117.032;2023-09-19T12:27:44;99265.73;;;25.32;45.92
60646;BME280;46462;32.608;-117.032;2023-09-19T12:30:15;99262.09;;;25.29;45.91
60646;BME280;46462;32.608;-117.032;2023-09-19T12:32:46;99263.86;;;25.39;45.65
60646;BME280;46462;32.608;-117.032;2023-09-19T12:37:52;99264.81;;;25.35;45.66
60646;BME280;46462;32.608;-117.032;2023-09-19T12:40:17;99267.61;;;25.31;45.71
60646;BME280;46462;32.608;-117.032;2023-09-19T12:42:49;99266.40;;;25.31;45.65
60646;BME280;46462;32.608;-117.032;2023-09-19T12:45:19;99265.21;;;25.26;45.74
60646;BME280;46462;32.608;-117.032;2023-09-19T12:50:20;99271.70;;;25.23;45.80
60646;BME280;46462;32.608;-117.032;2023-09-19T12:52:52;99272.80;;;25.21;45.83
60646;BME280;46462;32.608;-117.032;2023-09-19T12:55:23;99273.66;;;25.19;45.88
60646;BME280;46462;32.608;-117.032;2023-09-19T12:57:57;99276.71;;;25.08;45.94
60646;BME280;46462;32.608;-117.032;2023-09-19T13:07:55;99278.91;;;25.06;46.04
60646;BME280;46462;32.608;-117.032;2023-09-19T13:10:25;99283.34;;;24.95;46.28
60646;BME280;46462;32.608;-117.032;2023-09-19T13:15:27;99282.00;;;24.92;46.23
60646;BME280;46462;32.608;-117.032;2023-09-19T13:17:58;99280.87;;;24.92;46.16
60646;BME280;46462;32.608;-117.032;2023-09-19T13:20:28;99279.33;;;24.87;46.30
60646;BME280;46462;32.608;-117.032;2023-09-19T13:22:59;99284.57;;;24.86;46.39
60646;BME280;46462;32.608;-117.032;2023-09-19T13:25:29;99285.11;;;24.81;46.39
60646;BME280;46462;32.608;-117.032;2023-09-19T13:28:00;99283.79;;;24.85;46.21
60646;BME280;46462;32.608;-117.032;2023-09-19T13:30:31;99284.74;;;24.79;46.37